sensor_id;sensor_type;location;lat;lon;timestamp;P1;durP1;ratioP1;P2;durP2;ratioP2
67272;SDS011;54190;49.770;9.250;2022-08-02T00:01:40;6.67;;;5.97;;
67272;SDS011;54190;49.770;9.250;2022-08-02T00:04:06;8.60;;;5.90;;
67272;SDS011;54190;49.770;9.250;2022-08-02T00:06:32;6.83;;;6.13;;
67272;SDS011;54190;49.770;9.250;2022-08-02T00:08:58;12.13;;;6.57;;
67272;SDS011;54190;49.770;9.250;2022-08-02T00:11:24;7.50;;;6.63;;
67272;SDS011;54190;49.770;9.250;2022-08-02T00:13:50;7.20;;;5.73;;
67272;SDS011;54190;49.770;9.250;2022-08-02T00:16:16;6.80;;;6.10;;
67272;SDS011;54190;49.770;9.250;2022-08-02T00:18:42;6.70;;;6.00;;
67272;SDS011;54190;49.770;9.250;2022-08-02T00:21:08;7.20;;;6.50;;
67272;SDS011;54190;49.770;9.250;2022-08-02T00:23:34;7.10;;;6.40;;
67272;SDS011;54190;49.770;9.250;2022-08-02T00:26:00;7.10;;;6.40;;
67272;SDS011;54190;49.770;9.250;2022-08-02T00:28:25;7.33;;;6.60;;
67272;SDS011;54190;49.770;9.250;2022-08-02T00:30:51;9.70;;;6.30;;
67272;SDS011;54190;49.770;9.250;2022-08-02T00:33:17;8.23;;;6.70;;
67272;SDS011;54190;49.770;9.250;2022-08-02T00:35:43;7.03;;;6.27;;
67272;SDS011;54190;49.770;9.250;2022-08-02T00:38:11;8.90;;;7.67;;
67272;SDS011;54190;49.770;9.250;2022-08-02T00:40:37;7.20;;;6.50;;
67272;SDS011;54190;49.770;9.250;2022-08-02T00:43:09;7.97;;;7.00;;
67272;SDS011;54190;49.770;9.250;2022-08-02T00:45:38;7.90;;;6.27;;
67272;SDS011;54190;49.770;9.250;2022-08-02T00:48:05;7.80;;;6.80;;
67272;SDS011;54190;49.770;9.250;2022-08-02T00:50:32;7.47;;;6.13;;
67272;SDS011;54190;49.770;9.250;2022-08-02T00:53:00;8.20;;;7.13;;
67272;SDS011;54190;49.770;9.250;2022-08-02T00:55:26;10.13;;;6.90;;
67272;SDS011;54190;49.770;9.250;2022-08-02T00:57:52;7.30;;;6.47;;
67272;SDS011;54190;49.770;9.250;2022-08-02T01:00:19;10.00;;;7.20;;
67272;SDS011;54190;49.770;9.250;2022-08-02T01:02:45;8.27;;;7.37;;
67272;SDS011;54190;49.770;9.250;2022-08-02T01:05:11;8.83;;;7.23;;
67272;SDS011;54190;49.770;9.250;2022-08-02T01:07:37;8.10;;;7.10;;
67272;SDS011;54190;49.770;9.250;2022-08-02T01:10:04;9.57;;;7.70;;
67272;SDS011;54190;49.770;9.250;2022-08-02T01:12:30;8.67;;;7.77;;
67272;SDS011;54190;49.770;9.250;2022-08-02T01:14:57;9.63;;;7.40;;
67272;SDS011;54190;49.770;9.250;2022-08-02T01:20:10;9.33;;;7.90;;
67272;SDS011;54190;49.770;9.250;2022-08-02T01:30:18;6.93;;;6.23;;
67272;SDS011;54190;49.770;9.250;2022-08-02T01:32:47;8.20;;;7.30;;
67272;SDS011;54190;49.770;9.250;2022-08-02T01:35:22;7.80;;;7.00;;
67272;SDS011;54190;49.770;9.250;2022-08-02T01:38:19;8.63;;;7.10;;
67272;SDS011;54190;49.770;9.250;2022-08-02T01:40:53;7.57;;;6.57;;
67272;SDS011;54190;49.770;9.250;2022-08-02T01:43:20;9.20;;;7.17;;
67272;SDS011;54190;49.770;9.250;2022-08-02T01:45:49;10.13;;;7.17;;
67272;SDS011;54190;49.770;9.250;2022-08-02T01:48:17;10.17;;;7.37;;
67272;SDS011;54190;49.770;9.250;2022-08-02T01:50:44;10.17;;;6.47;;
67272;SDS011;54190;49.770;9.250;2022-08-02T01:53:13;8.40;;;6.50;;
67272;SDS011;54190;49.770;9.250;2022-08-02T01:55:43;9.03;;;6.77;;
67272;SDS011;54190;49.770;9.250;2022-08-02T01:58:11;7.93;;;6.30;;
67272;SDS011;54190;49.770;9.250;2022-08-02T02:00:40;7.10;;;6.30;;
67272;SDS011;54190;49.770;9.250;2022-08-02T02:03:17;10.53;;;7.43;;
67272;SDS011;54190;49.770;9.250;2022-08-02T02:05:46;7.90;;;6.83;;
67272;SDS011;54190;49.770;9.250;2022-08-02T02:08:13;9.13;;;6.90;;
67272;SDS011;54190;49.770;9.250;2022-08-02T02:10:41;8.93;;;7.50;;
67272;SDS011;54190;49.770;9.250;2022-08-02T02:13:13;8.70;;;6.70;;
67272;SDS011;54190;49.770;9.250;2022-08-02T02:15:43;8.67;;;7.20;;
67272;SDS011;54190;49.770;9.250;2022-08-02T02:18:16;7.27;;;6.57;;
67272;SDS011;54190;49.770;9.250;2022-08-02T02:20:45;8.57;;;7.33;;
67272;SDS011;54190;49.770;9.250;2022-08-02T02:23:12;9.97;;;7.77;;
67272;SDS011;54190;49.770;9.250;2022-08-02T02:25:41;9.07;;;7.03;;
67272;SDS011;54190;49.770;9.250;2022-08-02T02:28:11;8.33;;;7.40;;
67272;SDS011;54190;49.770;9.250;2022-08-02T02:30:54;11.70;;;7.00;;
67272;SDS011;54190;49.770;9.250;2022-08-02T02:33:39;7.97;;;6.33;;
67272;SDS011;54190;49.770;9.250;2022-08-02T02:36:11;7.80;;;6.30;;
67272;SDS011;54190;49.770;9.250;2022-08-02T02:38:40;8.60;;;7.07;;
67272;SDS011;54190;49.770;9.250;2022-08-02T02:41:07;9.80;;;7.30;;
67272;SDS011;54190;49.770;9.250;2022-08-02T02:43:34;8.13;;;7.33;;
67272;SDS011;54190;49.770;9.250;2022-08-02T02:46:02;9.43;;;6.83;;
67272;SDS011;54190;49.770;9.250;2022-08-02T02:48:30;9.47;;;7.00;;
67272;SDS011;54190;49.770;9.250;2022-08-02T02:50:56;7.73;;;6.93;;
67272;SDS011;54190;49.770;9.250;2022-08-02T02:53:23;8.20;;;7.10;;
67272;SDS011;54190;49.770;9.250;2022-08-02T02:55:49;9.23;;;6.13;;
67272;SDS011;54190;49.770;9.250;2022-08-02T02:58:16;7.57;;;6.30;;
67272;SDS011;54190;49.770;9.250;2022-08-02T03:00:42;7.40;;;6.50;;
67272;SDS011;54190;49.770;9.250;2022-08-02T03:03:27;8.37;;;6.23;;
67272;SDS011;54190;49.770;9.250;2022-08-02T03:05:54;6.90;;;6.20;;
67272;SDS011;54190;49.770;9.250;2022-08-02T03:08:19;7.90;;;6.00;;
67272;SDS011;54190;49.770;9.250;2022-08-02T03:10:45;7.00;;;6.30;;
67272;SDS011;54190;49.770;9.250;2022-08-02T03:13:11;8.43;;;6.30;;
67272;SDS011;54190;49.770;9.250;2022-08-02T03:15:38;7.63;;;6.60;;
67272;SDS011;54190;49.770;9.250;2022-08-02T03:18:05;9.10;;;6.43;;
67272;SDS011;54190;49.770;9.250;2022-08-02T03:20:33;10.90;;;7.03;;
67272;SDS011;54190;49.770;9.250;2022-08-02T03:22:59;8.20;;;6.40;;
67272;SDS011;54190;49.770;9.250;2022-08-02T03:25:25;7.30;;;5.70;;
67272;SDS011;54190;49.770;9.250;2022-08-02T03:27:51;7.10;;;5.83;;
67272;SDS011;54190;49.770;9.250;2022-08-02T03:30:16;7.33;;;6.43;;
67272;SDS011;54190;49.770;9.250;2022-08-02T03:32:46;8.30;;;6.30;;
67272;SDS011;54190;49.770;9.250;2022-08-02T03:35:13;6.50;;;5.80;;
67272;SDS011;54190;49.770;9.250;2022-08-02T03:37:40;7.20;;;6.40;;
67272;SDS011;54190;49.770;9.250;2022-08-02T03:40:07;8.63;;;6.60;;
67272;SDS011;54190;49.770;9.250;2022-08-02T03:42:36;6.77;;;5.80;;
67272;SDS011;54190;49.770;9.250;2022-08-02T03:45:04;10.13;;;5.93;;
67272;SDS011;54190;49.770;9.250;2022-08-02T03:47:33;6.80;;;5.63;;
67272;SDS011;54190;49.770;9.250;2022-08-02T03:49:59;7.23;;;5.87;;
67272;SDS011;54190;49.770;9.250;2022-08-02T03:52:25;6.10;;;5.50;;
67272;SDS011;54190;49.770;9.250;2022-08-02T03:54:53;6.63;;;5.93;;
67272;SDS011;54190;49.770;9.250;2022-08-02T03:57:18;9.43;;;5.97;;
67272;SDS011;54190;49.770;9.250;2022-08-02T03:59:45;6.50;;;5.80;;
67272;SDS011;54190;49.770;9.250;2022-08-02T04:02:11;6.50;;;5.63;;
67272;SDS011;54190;49.770;9.250;2022-08-02T04:04:38;8.47;;;6.90;;
67272;SDS011;54190;49.770;9.250;2022-08-02T04:07:04;9.80;;;7.10;;
67272;SDS011;54190;49.770;9.250;2022-08-02T04:09:30;8.50;;;7.20;;
67272;SDS011;54190;49.770;9.250;2022-08-02T04:11:56;7.90;;;7.10;;
67272;SDS011;54190;49.770;9.250;2022-08-02T04:14:22;9.23;;;7.10;;
67272;SDS011;54190;49.770;9.250;2022-08-02T04:16:51;10.10;;;7.20;;
67272;SDS011;54190;49.770;9.250;2022-08-02T04:19:37;10.63;;;7.20;;
67272;SDS011;54190;49.770;9.250;2022-08-02T04:22:05;8.30;;;7.07;;
67272;SDS011;54190;49.770;9.250;2022-08-02T04:24:37;19.57;;;7.23;;
67272;SDS011;54190;49.770;9.250;2022-08-02T04:27:09;11.07;;;7.03;;
67272;SDS011;54190;49.770;9.250;2022-08-02T04:29:35;7.40;;;6.40;;
67272;SDS011;54190;49.770;9.250;2022-08-02T04:32:02;9.10;;;6.97;;
67272;SDS011;54190;49.770;9.250;2022-08-02T04:34:29;7.40;;;6.50;;
67272;SDS011;54190;49.770;9.250;2022-08-02T04:36:55;10.70;;;7.00;;
67272;SDS011;54190;49.770;9.250;2022-08-02T04:39:22;6.73;;;6.03;;
67272;SDS011;54190;49.770;9.250;2022-08-02T04:41:48;9.53;;;6.83;;
67272;SDS011;54190;49.770;9.250;2022-08-02T04:44:14;7.73;;;6.93;;
67272;SDS011;54190;49.770;9.250;2022-08-02T04:46:42;9.83;;;6.60;;
67272;SDS011;54190;49.770;9.250;2022-08-02T04:49:08;7.87;;;6.60;;
67272;SDS011;54190;49.770;9.250;2022-08-02T04:51:37;7.90;;;6.90;;
67272;SDS011;54190;49.770;9.250;2022-08-02T04:54:05;7.60;;;6.80;;
67272;SDS011;54190;49.770;9.250;2022-08-02T04:56:31;8.67;;;7.10;;
67272;SDS011;54190;49.770;9.250;2022-08-02T04:58:57;7.77;;;6.87;;
67272;SDS011;54190;49.770;9.250;2022-08-02T05:01:22;9.27;;;7.20;;
67272;SDS011;54190;49.770;9.250;2022-08-02T05:03:49;7.73;;;6.73;;
67272;SDS011;54190;49.770;9.250;2022-08-02T05:06:15;8.50;;;6.87;;
67272;SDS011;54190;49.770;9.250;2022-08-02T05:08:43;10.43;;;7.03;;
67272;SDS011;54190;49.770;9.250;2022-08-02T05:11:13;7.80;;;7.00;;
67272;SDS011;54190;49.770;9.250;2022-08-02T05:13:41;8.10;;;7.30;;
67272;SDS011;54190;49.770;9.250;2022-08-02T05:16:08;8.30;;;7.13;;
67272;SDS011;54190;49.770;9.250;2022-08-02T05:18:33;9.27;;;7.33;;
67272;SDS011;54190;49.770;9.250;2022-08-02T05:20:59;9.87;;;7.23;;
67272;SDS011;54190;49.770;9.250;2022-08-02T05:23:25;9.37;;;8.20;;
67272;SDS011;54190;49.770;9.250;2022-08-02T05:25:51;7.93;;;7.13;;
67272;SDS011;54190;49.770;9.250;2022-08-02T05:28:16;9.30;;;7.20;;
67272;SDS011;54190;49.770;9.250;2022-08-02T05:30:42;8.97;;;7.67;;
67272;SDS011;54190;49.770;9.250;2022-08-02T05:33:08;8.20;;;7.10;;
67272;SDS011;54190;49.770;9.250;2022-08-02T05:35:35;9.03;;;7.63;;
67272;SDS011;54190;49.770;9.250;2022-08-02T05:38:00;8.37;;;7.00;;
67272;SDS011;54190;49.770;9.250;2022-08-02T05:40:26;8.23;;;7.10;;
67272;SDS011;54190;49.770;9.250;2022-08-02T05:42:53;7.10;;;5.80;;
67272;SDS011;54190;49.770;9.250;2022-08-02T05:45:18;12.10;;;6.63;;
67272;SDS011;54190;49.770;9.250;2022-08-02T05:47:44;7.50;;;6.20;;
67272;SDS011;54190;49.770;9.250;2022-08-02T05:50:10;9.30;;;6.17;;
67272;SDS011;54190;49.770;9.250;2022-08-02T05:55:11;7.60;;;6.50;;
67272;SDS011;54190;49.770;9.250;2022-08-02T06:00:48;7.60;;;6.80;;
67272;SDS011;54190;49.770;9.250;2022-08-02T06:03:17;11.00;;;6.17;;
67272;SDS011;54190;49.770;9.250;2022-08-02T06:08:32;8.37;;;7.07;;
67272;SDS011;54190;49.770;9.250;2022-08-02T06:11:04;10.00;;;6.57;;
67272;SDS011;54190;49.770;9.250;2022-08-02T06:13:31;10.40;;;6.20;;
67272;SDS011;54190;49.770;9.250;2022-08-02T06:15:57;7.00;;;6.30;;
67272;SDS011;54190;49.770;9.250;2022-08-02T06:18:27;14.17;;;6.97;;
67272;SDS011;54190;49.770;9.250;2022-08-02T06:20:54;7.47;;;6.33;;
67272;SDS011;54190;49.770;9.250;2022-08-02T06:23:26;7.93;;;6.23;;
67272;SDS011;54190;49.770;9.250;2022-08-02T06:25:54;7.60;;;6.50;;
67272;SDS011;54190;49.770;9.250;2022-08-02T06:28:22;7.67;;;6.70;;
67272;SDS011;54190;49.770;9.250;2022-08-02T06:30:48;7.80;;;7.00;;
67272;SDS011;54190;49.770;9.250;2022-08-02T06:33:14;7.93;;;6.33;;
67272;SDS011;54190;49.770;9.250;2022-08-02T06:38:34;8.93;;;7.00;;
67272;SDS011;54190;49.770;9.250;2022-08-02T06:41:08;7.93;;;7.13;;
67272;SDS011;54190;49.770;9.250;2022-08-02T06:46:28;8.63;;;7.67;;
67272;SDS011;54190;49.770;9.250;2022-08-02T06:48:54;9.33;;;7.30;;
67272;SDS011;54190;49.770;9.250;2022-08-02T06:51:21;10.27;;;8.50;;
67272;SDS011;54190;49.770;9.250;2022-08-02T06:53:47;10.23;;;8.37;;
67272;SDS011;54190;49.770;9.250;2022-08-02T06:56:13;9.40;;;8.00;;
67272;SDS011;54190;49.770;9.250;2022-08-02T06:58:39;9.97;;;7.27;;
67272;SDS011;54190;49.770;9.250;2022-08-02T07:01:05;9.03;;;7.30;;
67272;SDS011;54190;49.770;9.250;2022-08-02T07:03:35;9.70;;;8.40;;
67272;SDS011;54190;49.770;9.250;2022-08-02T07:06:02;9.10;;;8.20;;
67272;SDS011;54190;49.770;9.250;2022-08-02T07:08:29;13.17;;;8.10;;
67272;SDS011;54190;49.770;9.250;2022-08-02T07:10:58;10.20;;;8.20;;
67272;SDS011;54190;49.770;9.250;2022-08-02T07:13:25;7.30;;;6.33;;
67272;SDS011;54190;49.770;9.250;2022-08-02T07:15:52;7.57;;;6.80;;
67272;SDS011;54190;49.770;9.250;2022-08-02T07:18:18;7.10;;;6.17;;
67272;SDS011;54190;49.770;9.250;2022-08-02T07:20:44;8.13;;;6.47;;
67272;SDS011;54190;49.770;9.250;2022-08-02T07:23:10;6.07;;;5.47;;
67272;SDS011;54190;49.770;9.250;2022-08-02T07:25:35;5.80;;;5.20;;
67272;SDS011;54190;49.770;9.250;2022-08-02T07:28:02;6.77;;;6.10;;
67272;SDS011;54190;49.770;9.250;2022-08-02T07:30:28;6.77;;;5.77;;
67272;SDS011;54190;49.770;9.250;2022-08-02T07:32:55;6.80;;;5.73;;
67272;SDS011;54190;49.770;9.250;2022-08-02T07:35:21;6.00;;;5.33;;
67272;SDS011;54190;49.770;9.250;2022-08-02T07:37:47;5.70;;;5.00;;
67272;SDS011;54190;49.770;9.250;2022-08-02T07:40:14;5.20;;;4.70;;
67272;SDS011;54190;49.770;9.250;2022-08-02T07:42:40;8.20;;;4.53;;
67272;SDS011;54190;49.770;9.250;2022-08-02T07:45:07;6.10;;;4.30;;
67272;SDS011;54190;49.770;9.250;2022-08-02T07:47:37;4.83;;;4.33;;
67272;SDS011;54190;49.770;9.250;2022-08-02T07:50:07;4.80;;;4.27;;
67272;SDS011;54190;49.770;9.250;2022-08-02T07:52:36;4.77;;;4.20;;
67272;SDS011;54190;49.770;9.250;2022-08-02T07:55:03;6.30;;;5.10;;
67272;SDS011;54190;49.770;9.250;2022-08-02T07:57:29;5.67;;;5.07;;
67272;SDS011;54190;49.770;9.250;2022-08-02T07:59:55;4.97;;;4.47;;
67272;SDS011;54190;49.770;9.250;2022-08-02T08:02:20;4.90;;;4.40;;
67272;SDS011;54190;49.770;9.250;2022-08-02T08:04:48;4.87;;;4.40;;
67272;SDS011;54190;49.770;9.250;2022-08-02T08:07:14;6.43;;;4.50;;
67272;SDS011;54190;49.770;9.250;2022-08-02T08:09:41;6.17;;;4.10;;
67272;SDS011;54190;49.770;9.250;2022-08-02T08:12:08;3.70;;;3.40;;
67272;SDS011;54190;49.770;9.250;2022-08-02T08:14:34;3.93;;;3.60;;
67272;SDS011;54190;49.770;9.250;2022-08-02T08:17:01;4.97;;;3.80;;
67272;SDS011;54190;49.770;9.250;2022-08-02T08:19:27;5.23;;;3.60;;
67272;SDS011;54190;49.770;9.250;2022-08-02T08:21:53;6.00;;;3.30;;
67272;SDS011;54190;49.770;9.250;2022-08-02T08:24:18;5.20;;;3.70;;
67272;SDS011;54190;49.770;9.250;2022-08-02T08:26:44;4.90;;;3.43;;
67272;SDS011;54190;49.770;9.250;2022-08-02T08:29:10;4.20;;;3.80;;
67272;SDS011;54190;49.770;9.250;2022-08-02T08:31:36;10.83;;;4.70;;
67272;SDS011;54190;49.770;9.250;2022-08-02T08:34:02;4.53;;;3.40;;
67272;SDS011;54190;49.770;9.250;2022-08-02T08:36:28;4.20;;;3.80;;
67272;SDS011;54190;49.770;9.250;2022-08-02T08:38:53;4.97;;;4.47;;
67272;SDS011;54190;49.770;9.250;2022-08-02T08:41:19;6.63;;;4.40;;
67272;SDS011;54190;49.770;9.250;2022-08-02T08:43:45;4.10;;;3.57;;
67272;SDS011;54190;49.770;9.250;2022-08-02T08:49:05;4.80;;;3.90;;
67272;SDS011;54190;49.770;9.250;2022-08-02T08:51:37;4.27;;;3.87;;
67272;SDS011;54190;49.770;9.250;2022-08-02T08:54:07;4.80;;;3.67;;
67272;SDS011;54190;49.770;9.250;2022-08-02T08:56:36;3.60;;;3.20;;
67272;SDS011;54190;49.770;9.250;2022-08-02T08:59:04;4.40;;;4.00;;
67272;SDS011;54190;49.770;9.250;2022-08-02T09:01:30;3.93;;;3.53;;
67272;SDS011;54190;49.770;9.250;2022-08-02T09:03:57;3.20;;;2.90;;
67272;SDS011;54190;49.770;9.250;2022-08-02T09:06:22;3.90;;;3.30;;
67272;SDS011;54190;49.770;9.250;2022-08-02T09:08:48;3.07;;;2.77;;
67272;SDS011;54190;49.770;9.250;2022-08-02T09:11:15;3.43;;;3.13;;
67272;SDS011;54190;49.770;9.250;2022-08-02T09:13:52;3.80;;;3.40;;
67272;SDS011;54190;49.770;9.250;2022-08-02T09:16:36;3.63;;;3.00;;
67272;SDS011;54190;49.770;9.250;2022-08-02T09:19:19;3.27;;;2.97;;
67272;SDS011;54190;49.770;9.250;2022-08-02T09:21:50;4.73;;;3.03;;
67272;SDS011;54190;49.770;9.250;2022-08-02T09:24:25;4.10;;;3.10;;
67272;SDS011;54190;49.770;9.250;2022-08-02T09:26:50;4.03;;;3.37;;
67272;SDS011;54190;49.770;9.250;2022-08-02T09:29:17;3.43;;;3.13;;
67272;SDS011;54190;49.770;9.250;2022-08-02T09:31:45;3.47;;;2.90;;
67272;SDS011;54190;49.770;9.250;2022-08-02T09:34:11;3.17;;;2.70;;
67272;SDS011;54190;49.770;9.250;2022-08-02T09:36:41;3.27;;;2.80;;
67272;SDS011;54190;49.770;9.250;2022-08-02T09:39:09;4.47;;;2.57;;
67272;SDS011;54190;49.770;9.250;2022-08-02T09:41:37;5.37;;;2.33;;
67272;SDS011;54190;49.770;9.250;2022-08-02T09:44:08;2.77;;;2.23;;
67272;SDS011;54190;49.770;9.250;2022-08-02T09:46:39;2.97;;;2.63;;
67272;SDS011;54190;49.770;9.250;2022-08-02T09:49:07;4.73;;;2.40;;
67272;SDS011;54190;49.770;9.250;2022-08-02T09:51:51;5.27;;;2.43;;
67272;SDS011;54190;49.770;9.250;2022-08-02T09:54:19;2.90;;;2.60;;
67272;SDS011;54190;49.770;9.250;2022-08-02T09:56:49;2.53;;;2.33;;
67272;SDS011;54190;49.770;9.250;2022-08-02T09:59:23;2.53;;;2.17;;
67272;SDS011;54190;49.770;9.250;2022-08-02T10:01:50;2.60;;;2.40;;
67272;SDS011;54190;49.770;9.250;2022-08-02T10:04:19;2.90;;;2.37;;
67272;SDS011;54190;49.770;9.250;2022-08-02T10:06:50;2.13;;;1.90;;
67272;SDS011;54190;49.770;9.250;2022-08-02T10:09:17;2.40;;;2.17;;
67272;SDS011;54190;49.770;9.250;2022-08-02T10:11:44;2.03;;;1.83;;
67272;SDS011;54190;49.770;9.250;2022-08-02T10:14:10;2.67;;;2.00;;
67272;SDS011;54190;49.770;9.250;2022-08-02T10:16:40;2.73;;;2.10;;
67272;SDS011;54190;49.770;9.250;2022-08-02T10:19:08;2.30;;;2.10;;
67272;SDS011;54190;49.770;9.250;2022-08-02T10:24:26;3.97;;;2.03;;
67272;SDS011;54190;49.770;9.250;2022-08-02T10:26:54;2.60;;;2.00;;
67272;SDS011;54190;49.770;9.250;2022-08-02T10:29:26;2.37;;;2.10;;
67272;SDS011;54190;49.770;9.250;2022-08-02T10:32:03;5.20;;;2.50;;
67272;SDS011;54190;49.770;9.250;2022-08-02T10:34:36;5.03;;;2.53;;
67272;SDS011;54190;49.770;9.250;2022-08-02T10:37:09;2.17;;;1.90;;
67272;SDS011;54190;49.770;9.250;2022-08-02T10:39:40;3.00;;;2.07;;
67272;SDS011;54190;49.770;9.250;2022-08-02T10:42:07;2.43;;;2.23;;
67272;SDS011;54190;49.770;9.250;2022-08-02T10:44:34;3.03;;;2.10;;
67272;SDS011;54190;49.770;9.250;2022-08-02T10:52:21;2.47;;;2.27;;
67272;SDS011;54190;49.770;9.250;2022-08-02T10:59:51;2.73;;;2.20;;
67272;SDS011;54190;49.770;9.250;2022-08-02T11:02:38;3.10;;;2.10;;
67272;SDS011;54190;49.770;9.250;2022-08-02T11:05:06;2.83;;;2.50;;
67272;SDS011;54190;49.770;9.250;2022-08-02T11:07:43;4.90;;;2.37;;
67272;SDS011;54190;49.770;9.250;2022-08-02T11:12:57;4.80;;;2.30;;
67272;SDS011;54190;49.770;9.250;2022-08-02T11:15:48;2.70;;;2.30;;
67272;SDS011;54190;49.770;9.250;2022-08-02T11:18:17;2.70;;;2.50;;
67272;SDS011;54190;49.770;9.250;2022-08-02T11:20:44;3.30;;;2.20;;
67272;SDS011;54190;49.770;9.250;2022-08-02T11:28:58;3.17;;;1.97;;
67272;SDS011;54190;49.770;9.250;2022-08-02T11:31:26;2.07;;;1.90;;
67272;SDS011;54190;49.770;9.250;2022-08-02T11:33:52;2.90;;;2.27;;
67272;SDS011;54190;49.770;9.250;2022-08-02T11:36:18;2.10;;;1.90;;
67272;SDS011;54190;49.770;9.250;2022-08-02T11:38:44;2.70;;;2.10;;
67272;SDS011;54190;49.770;9.250;2022-08-02T11:41:20;2.50;;;2.07;;
67272;SDS011;54190;49.770;9.250;2022-08-02T11:43:52;2.17;;;1.97;;
67272;SDS011;54190;49.770;9.250;2022-08-02T11:46:18;3.07;;;2.40;;
67272;SDS011;54190;49.770;9.250;2022-08-02T11:48:44;2.53;;;2.03;;
67272;SDS011;54190;49.770;9.250;2022-08-02T11:51:11;3.20;;;2.30;;
67272;SDS011;54190;49.770;9.250;2022-08-02T11:53:48;3.20;;;2.07;;
67272;SDS011;54190;49.770;9.250;2022-08-02T11:56:24;2.10;;;1.90;;
67272;SDS011;54190;49.770;9.250;2022-08-02T12:01:29;3.40;;;2.23;;
67272;SDS011;54190;49.770;9.250;2022-08-02T12:03:56;2.33;;;2.13;;
67272;SDS011;54190;49.770;9.250;2022-08-02T12:06:25;2.57;;;2.27;;
67272;SDS011;54190;49.770;9.250;2022-08-02T12:08:59;2.30;;;2.10;;
67272;SDS011;54190;49.770;9.250;2022-08-02T12:11:35;2.07;;;1.87;;
67272;SDS011;54190;49.770;9.250;2022-08-02T12:14:02;2.60;;;2.10;;
67272;SDS011;54190;49.770;9.250;2022-08-02T12:16:33;2.80;;;2.50;;
67272;SDS011;54190;49.770;9.250;2022-08-02T12:19:19;2.20;;;2.00;;
67272;SDS011;54190;49.770;9.250;2022-08-02T12:22:06;2.77;;;2.40;;
67272;SDS011;54190;49.770;9.250;2022-08-02T12:24:39;3.87;;;2.37;;
67272;SDS011;54190;49.770;9.250;2022-08-02T12:27:06;2.60;;;2.40;;
67272;SDS011;54190;49.770;9.250;2022-08-02T12:29:33;3.20;;;2.33;;
67272;SDS011;54190;49.770;9.250;2022-08-02T12:32:02;2.40;;;2.20;;
67272;SDS011;54190;49.770;9.250;2022-08-02T12:34:29;3.43;;;2.20;;
67272;SDS011;54190;49.770;9.250;2022-08-02T12:36:57;2.67;;;2.20;;
67272;SDS011;54190;49.770;9.250;2022-08-02T12:39:44;2.20;;;2.00;;
67272;SDS011;54190;49.770;9.250;2022-08-02T12:42:14;2.20;;;1.97;;
67272;SDS011;54190;49.770;9.250;2022-08-02T12:44:53;2.23;;;2.03;;
67272;SDS011;54190;49.770;9.250;2022-08-02T12:47:22;2.57;;;2.10;;
67272;SDS011;54190;49.770;9.250;2022-08-02T12:52:39;2.47;;;2.27;;
67272;SDS011;54190;49.770;9.250;2022-08-02T12:55:18;3.90;;;2.37;;
67272;SDS011;54190;49.770;9.250;2022-08-02T12:57:53;3.37;;;2.10;;
67272;SDS011;54190;49.770;9.250;2022-08-02T13:00:26;3.20;;;2.60;;
67272;SDS011;54190;49.770;9.250;2022-08-02T13:02:54;3.77;;;2.00;;
67272;SDS011;54190;49.770;9.250;2022-08-02T13:05:20;2.70;;;2.30;;
67272;SDS011;54190;49.770;9.250;2022-08-02T13:07:46;1.93;;;1.80;;
67272;SDS011;54190;49.770;9.250;2022-08-02T13:10:12;2.30;;;2.00;;
67272;SDS011;54190;49.770;9.250;2022-08-02T13:12:38;2.53;;;2.33;;
67272;SDS011;54190;49.770;9.250;2022-08-02T13:15:08;1.83;;;1.73;;
67272;SDS011;54190;49.770;9.250;2022-08-02T13:17:34;2.40;;;2.20;;
67272;SDS011;54190;49.770;9.250;2022-08-02T13:20:00;2.20;;;2.00;;
67272;SDS011;54190;49.770;9.250;2022-08-02T13:22:26;2.67;;;2.13;;
67272;SDS011;54190;49.770;9.250;2022-08-02T13:24:52;3.43;;;2.10;;
67272;SDS011;54190;49.770;9.250;2022-08-02T13:27:18;2.27;;;2.07;;
67272;SDS011;54190;49.770;9.250;2022-08-02T13:29:44;2.73;;;2.43;;
67272;SDS011;54190;49.770;9.250;2022-08-02T13:32:10;3.80;;;2.50;;
67272;SDS011;54190;49.770;9.250;2022-08-02T13:34:36;2.17;;;1.83;;
67272;SDS011;54190;49.770;9.250;2022-08-02T13:37:02;2.23;;;2.03;;
67272;SDS011;54190;49.770;9.250;2022-08-02T13:39:28;2.00;;;1.90;;
67272;SDS011;54190;49.770;9.250;2022-08-02T13:41:54;2.50;;;2.30;;
67272;SDS011;54190;49.770;9.250;2022-08-02T13:44:20;2.47;;;2.27;;
67272;SDS011;54190;49.770;9.250;2022-08-02T13:46:45;2.20;;;2.00;;
67272;SDS011;54190;49.770;9.250;2022-08-02T13:49:12;2.00;;;1.90;;
67272;SDS011;54190;49.770;9.250;2022-08-02T13:51:38;2.53;;;2.23;;
67272;SDS011;54190;49.770;9.250;2022-08-02T13:54:03;2.47;;;2.27;;
67272;SDS011;54190;49.770;9.250;2022-08-02T13:56:29;2.23;;;2.00;;
67272;SDS011;54190;49.770;9.250;2022-08-02T13:58:55;2.00;;;1.90;;
67272;SDS011;54190;49.770;9.250;2022-08-02T14:01:23;2.17;;;1.97;;
67272;SDS011;54190;49.770;9.250;2022-08-02T14:03:50;2.20;;;2.00;;
67272;SDS011;54190;49.770;9.250;2022-08-02T14:06:18;2.37;;;2.17;;
67272;SDS011;54190;49.770;9.250;2022-08-02T14:08:44;2.63;;;2.30;;
67272;SDS011;54190;49.770;9.250;2022-08-02T14:11:10;4.03;;;2.23;;
67272;SDS011;54190;49.770;9.250;2022-08-02T14:13:36;2.00;;;1.80;;
67272;SDS011;54190;49.770;9.250;2022-08-02T14:16:01;2.73;;;2.00;;
67272;SDS011;54190;49.770;9.250;2022-08-02T14:18:28;2.30;;;2.10;;
67272;SDS011;54190;49.770;9.250;2022-08-02T14:20:54;2.37;;;2.00;;
67272;SDS011;54190;49.770;9.250;2022-08-02T14:23:20;3.07;;;1.90;;
67272;SDS011;54190;49.770;9.250;2022-08-02T14:25:46;2.20;;;2.00;;
67272;SDS011;54190;49.770;9.250;2022-08-02T14:28:12;2.57;;;2.10;;
67272;SDS011;54190;49.770;9.250;2022-08-02T14:30:38;4.10;;;1.97;;
67272;SDS011;54190;49.770;9.250;2022-08-02T14:33:04;2.10;;;1.90;;
67272;SDS011;54190;49.770;9.250;2022-08-02T14:35:29;2.47;;;1.90;;
67272;SDS011;54190;49.770;9.250;2022-08-02T14:37:55;3.60;;;2.40;;
67272;SDS011;54190;49.770;9.250;2022-08-02T14:40:22;2.60;;;2.00;;
67272;SDS011;54190;49.770;9.250;2022-08-02T14:42:48;2.37;;;2.17;;
67272;SDS011;54190;49.770;9.250;2022-08-02T14:45:16;2.30;;;2.10;;
67272;SDS011;54190;49.770;9.250;2022-08-02T14:47:45;3.70;;;2.07;;
67272;SDS011;54190;49.770;9.250;2022-08-02T14:50:11;3.10;;;2.40;;
67272;SDS011;54190;49.770;9.250;2022-08-02T14:52:38;2.20;;;2.00;;
67272;SDS011;54190;49.770;9.250;2022-08-02T14:55:04;2.47;;;1.87;;
67272;SDS011;54190;49.770;9.250;2022-08-02T14:57:30;2.20;;;1.83;;
67272;SDS011;54190;49.770;9.250;2022-08-02T14:59:56;2.93;;;2.23;;
67272;SDS011;54190;49.770;9.250;2022-08-02T15:02:25;2.20;;;2.00;;
67272;SDS011;54190;49.770;9.250;2022-08-02T15:04:51;2.17;;;1.97;;
67272;SDS011;54190;49.770;9.250;2022-08-02T15:07:17;4.17;;;2.13;;
67272;SDS011;54190;49.770;9.250;2022-08-02T15:09:43;3.70;;;2.20;;
67272;SDS011;54190;49.770;9.250;2022-08-02T15:12:10;3.00;;;1.87;;
67272;SDS011;54190;49.770;9.250;2022-08-02T15:14:36;2.27;;;1.80;;
67272;SDS011;54190;49.770;9.250;2022-08-02T15:17:03;2.10;;;1.90;;
67272;SDS011;54190;49.770;9.250;2022-08-02T15:19:29;3.83;;;2.40;;
67272;SDS011;54190;49.770;9.250;2022-08-02T15:21:55;2.83;;;2.20;;
67272;SDS011;54190;49.770;9.250;2022-08-02T15:24:21;2.40;;;2.03;;
67272;SDS011;54190;49.770;9.250;2022-08-02T15:26:47;4.00;;;1.93;;
67272;SDS011;54190;49.770;9.250;2022-08-02T15:29:14;2.57;;;2.00;;
67272;SDS011;54190;49.770;9.250;2022-08-02T15:31:40;2.80;;;2.00;;
67272;SDS011;54190;49.770;9.250;2022-08-02T15:34:06;3.10;;;2.17;;
67272;SDS011;54190;49.770;9.250;2022-08-02T15:36:32;2.83;;;1.83;;
67272;SDS011;54190;49.770;9.250;2022-08-02T15:38:58;6.47;;;2.03;;
67272;SDS011;54190;49.770;9.250;2022-08-02T15:41:23;3.00;;;2.20;;
67272;SDS011;54190;49.770;9.250;2022-08-02T15:43:49;2.17;;;1.97;;
67272;SDS011;54190;49.770;9.250;2022-08-02T15:46:15;2.40;;;2.20;;